BLY81U EPWR-EGCC
Flight info
| Callsign | BLY81U |
|---|---|
| Flight time | 2h 17m |
| Altitude | 34000 |
| Route | ULGIL Z348 RENDO DCT OSTRA DCT KUMER DCT RKN DCT SPY DCT RAVLO Y70 OTBED |
| Aircraft | A321/M-SDE3FGHIRWY/LB1 |
Departure
| Time | 2026-05-04 08:54 |
|---|---|
| Airport | Copernicus Wrocław Airport (EPWR) |
Arrival
| Time | 2026-05-04 11:12 |
|---|---|
| Airport | Manchester Airport (EGCC) |
| Time | Latitude | Longitude | Altitude | Speed | Heading |
|---|---|---|---|---|---|
| 2026-05-04 08:37 | 51.10868 | 16.87989 | 403 ft | 0 kts | 26° |
| 2026-05-04 08:42 | 51.10866 | 16.87988 | 403 ft | 2 kts | 26° |
| 2026-05-04 08:43 | 51.10843 | 16.87970 | 398 ft | 4 kts | 31° |
| 2026-05-04 08:43 | 51.10823 | 16.87944 | 398 ft | 4 kts | 59° |
| 2026-05-04 08:43 | 51.10816 | 16.87907 | 401 ft | 4 kts | 106° |
| 2026-05-04 08:43 | 51.10820 | 16.87890 | 402 ft | 1 kts | 116° |
| 2026-05-04 08:44 | 51.10821 | 16.87889 | 402 ft | 0 kts | 116° |
| 2026-05-04 08:46 | 51.10820 | 16.87890 | 402 ft | 1 kts | 116° |
| 2026-05-04 08:46 | 51.10813 | 16.87914 | 402 ft | 4 kts | 116° |
| 2026-05-04 08:46 | 51.10795 | 16.87974 | 403 ft | 8 kts | 116° |
| 2026-05-04 08:46 | 51.10766 | 16.88067 | 403 ft | 11 kts | 116° |
| 2026-05-04 08:47 | 51.10729 | 16.88191 | 403 ft | 14 kts | 116° |
| 2026-05-04 08:47 | 51.10683 | 16.88341 | 403 ft | 17 kts | 116° |
| 2026-05-04 08:47 | 51.10628 | 16.88518 | 403 ft | 19 kts | 116° |
| 2026-05-04 08:47 | 51.10577 | 16.88684 | 400 ft | 9 kts | 116° |
| 2026-05-04 08:48 | 51.10546 | 16.88785 | 401 ft | 12 kts | 116° |
| 2026-05-04 08:48 | 51.10506 | 16.88916 | 403 ft | 15 kts | 116° |
| 2026-05-04 08:48 | 51.10457 | 16.89076 | 403 ft | 17 kts | 116° |
| 2026-05-04 08:48 | 51.10400 | 16.89261 | 401 ft | 20 kts | 116° |
| 2026-05-04 08:49 | 51.10336 | 16.89470 | 403 ft | 22 kts | 116° |
| 2026-05-04 08:50 | 51.10114 | 16.89949 | 403 ft | 9 kts | 205° |
| 2026-05-04 08:50 | 51.10047 | 16.89897 | 403 ft | 12 kts | 206° |
| 2026-05-04 08:51 | 51.09963 | 16.89833 | 403 ft | 15 kts | 206° |
| 2026-05-04 08:51 | 51.09914 | 16.89753 | 403 ft | 10 kts | 268° |
| 2026-05-04 08:51 | 51.09922 | 16.89710 | 401 ft | 0 kts | 293° |
| 2026-05-04 08:52 | 51.09923 | 16.89706 | 401 ft | 3 kts | 293° |
| 2026-05-04 08:52 | 51.10006 | 16.89433 | 406 ft | 62 kts | 296° |
| 2026-05-04 08:52 | 51.10297 | 16.88486 | 404 ft | 126 kts | 296° |
| 2026-05-04 08:53 | 51.10760 | 16.86969 | 475 ft | 170 kts | 296° |
| 2026-05-04 08:54 | 51.09171 | 16.73892 | 3730 ft | 269 kts | 237° |
| 2026-05-04 08:55 | 51.08153 | 16.71387 | 4436 ft | 271 kts | 240° |
| 2026-05-04 08:55 | 51.07210 | 16.68780 | 5155 ft | 273 kts | 242° |
| 2026-05-04 08:55 | 51.06282 | 16.66149 | 5903 ft | 272 kts | 240° |
| 2026-05-04 08:55 | 51.05346 | 16.63537 | 6663 ft | 272 kts | 239° |
| 2026-05-04 08:57 | 51.01669 | 16.44017 | 10092 ft | 288 kts | 284° |
| 2026-05-04 09:01 | 51.10555 | 15.92672 | 16408 ft | 363 kts | 274° |
| 2026-05-04 09:01 | 51.10849 | 15.88667 | 16890 ft | 365 kts | 274° |
| 2026-05-04 09:01 | 51.11143 | 15.84641 | 17371 ft | 367 kts | 274° |
| 2026-05-04 09:01 | 51.11437 | 15.80595 | 17861 ft | 369 kts | 274° |
| 2026-05-04 09:02 | 51.11731 | 15.76525 | 18341 ft | 371 kts | 274° |
| 2026-05-04 09:02 | 51.12027 | 15.72431 | 18730 ft | 373 kts | 274° |
| 2026-05-04 09:02 | 51.12321 | 15.68318 | 19110 ft | 376 kts | 274° |
| 2026-05-04 09:02 | 51.12613 | 15.64233 | 19487 ft | 378 kts | 274° |
| 2026-05-04 09:03 | 51.12961 | 15.60079 | 19846 ft | 381 kts | 279° |
| 2026-05-04 09:03 | 51.13483 | 15.55950 | 20218 ft | 383 kts | 279° |
| 2026-05-04 09:03 | 51.14013 | 15.51777 | 20603 ft | 385 kts | 279° |
| 2026-05-04 09:03 | 51.14545 | 15.47587 | 20978 ft | 387 kts | 279° |
| 2026-05-04 09:04 | 51.15077 | 15.43374 | 21347 ft | 389 kts | 279° |
| 2026-05-04 09:04 | 51.15610 | 15.39125 | 21699 ft | 392 kts | 279° |
| 2026-05-04 09:04 | 51.16141 | 15.34863 | 22060 ft | 394 kts | 279° |
| 2026-05-04 09:04 | 51.16672 | 15.30572 | 22409 ft | 396 kts | 279° |
| 2026-05-04 09:05 | 51.17198 | 15.26323 | 22749 ft | 398 kts | 279° |
| 2026-05-04 09:05 | 51.17733 | 15.21983 | 23100 ft | 400 kts | 279° |
| 2026-05-04 09:05 | 51.18274 | 15.17613 | 23445 ft | 403 kts | 279° |
| 2026-05-04 09:05 | 51.18817 | 15.13220 | 23754 ft | 405 kts | 279° |
| 2026-05-04 09:06 | 51.19358 | 15.08814 | 24047 ft | 407 kts | 279° |
| 2026-05-04 09:07 | 51.21994 | 14.77317 | 26222 ft | 414 kts | 274° |
| 2026-05-04 09:08 | 51.22284 | 14.72742 | 26527 ft | 415 kts | 275° |
| 2026-05-04 09:08 | 51.22589 | 14.68161 | 26827 ft | 416 kts | 275° |
| 2026-05-04 09:08 | 51.22903 | 14.63573 | 27123 ft | 417 kts | 275° |
| 2026-05-04 09:08 | 51.23225 | 14.58966 | 27415 ft | 418 kts | 275° |
| 2026-05-04 09:09 | 51.23548 | 14.54353 | 27710 ft | 419 kts | 275° |
| 2026-05-04 09:09 | 51.23865 | 14.49788 | 28016 ft | 420 kts | 275° |
| 2026-05-04 09:09 | 51.24179 | 14.45144 | 28269 ft | 422 kts | 275° |
| 2026-05-04 09:09 | 51.24486 | 14.40488 | 28569 ft | 423 kts | 275° |
| 2026-05-04 09:10 | 51.24794 | 14.35816 | 28857 ft | 423 kts | 275° |
| 2026-05-04 09:10 | 51.25102 | 14.31139 | 29130 ft | 424 kts | 275° |
| 2026-05-04 09:10 | 51.25407 | 14.26451 | 29381 ft | 425 kts | 275° |
| 2026-05-04 09:10 | 51.25709 | 14.21749 | 29621 ft | 426 kts | 275° |
| 2026-05-04 09:11 | 51.26010 | 14.17041 | 29853 ft | 427 kts | 275° |
| 2026-05-04 09:11 | 51.26311 | 14.12314 | 30070 ft | 428 kts | 275° |
| 2026-05-04 09:11 | 51.26608 | 14.07652 | 30304 ft | 428 kts | 274° |
| 2026-05-04 09:11 | 51.26906 | 14.02935 | 30566 ft | 426 kts | 274° |
| 2026-05-04 09:12 | 51.27202 | 13.98229 | 30815 ft | 426 kts | 274° |
| 2026-05-04 09:12 | 51.27496 | 13.93535 | 31063 ft | 425 kts | 274° |
| 2026-05-04 09:14 | 51.28243 | 13.60890 | 32737 ft | 418 kts | 269° |
| 2026-05-04 09:14 | 51.28299 | 13.56268 | 32964 ft | 418 kts | 269° |
| 2026-05-04 09:14 | 51.28366 | 13.51638 | 33190 ft | 417 kts | 270° |
| 2026-05-04 09:14 | 51.28413 | 13.48576 | 33339 ft | 417 kts | 270° |
| 2026-05-04 09:15 | 51.28482 | 13.43952 | 33596 ft | 416 kts | 269° |
| 2026-05-04 09:15 | 51.28550 | 13.39343 | 33846 ft | 414 kts | 269° |
| 2026-05-04 09:15 | 51.28632 | 13.33257 | 34013 ft | 412 kts | 268° |
| 2026-05-04 09:17 | 51.29058 | 12.93640 | 34038 ft | 412 kts | 268° |
| 2026-05-04 09:18 | 51.29796 | 12.84529 | 34038 ft | 416 kts | 277° |
| 2026-05-04 09:18 | 51.30870 | 12.75454 | 34038 ft | 416 kts | 277° |
| 2026-05-04 09:19 | 51.31929 | 12.66432 | 34042 ft | 416 kts | 277° |
| 2026-05-04 09:19 | 51.32988 | 12.57333 | 34046 ft | 416 kts | 277° |
| 2026-05-04 09:20 | 51.34034 | 12.48225 | 34054 ft | 416 kts | 277° |
| 2026-05-04 09:20 | 51.35082 | 12.39115 | 34049 ft | 417 kts | 277° |
| 2026-05-04 09:21 | 51.36123 | 12.30001 | 34044 ft | 417 kts | 277° |
| 2026-05-04 09:21 | 51.37145 | 12.20940 | 34042 ft | 416 kts | 277° |
| 2026-05-04 09:22 | 51.38173 | 12.11816 | 34036 ft | 417 kts | 277° |
| 2026-05-04 09:22 | 51.39189 | 12.02686 | 34052 ft | 417 kts | 277° |
| 2026-05-04 09:23 | 51.40195 | 11.93554 | 34043 ft | 417 kts | 276° |
| 2026-05-04 09:23 | 51.41189 | 11.84414 | 34040 ft | 417 kts | 276° |
| 2026-05-04 09:25 | 51.44450 | 11.54415 | 34042 ft | 417 kts | 276° |
| 2026-05-04 09:26 | 51.45421 | 11.45260 | 34049 ft | 416 kts | 276° |
| 2026-05-04 09:26 | 51.46373 | 11.36104 | 34046 ft | 416 kts | 276° |
| 2026-05-04 09:27 | 51.47314 | 11.27021 | 34043 ft | 415 kts | 276° |
| 2026-05-04 09:27 | 51.48264 | 11.17878 | 34036 ft | 415 kts | 276° |
| 2026-05-04 09:28 | 51.49208 | 11.08744 | 34048 ft | 415 kts | 276° |
| 2026-05-04 09:28 | 51.50145 | 10.99618 | 34033 ft | 414 kts | 276° |
| 2026-05-04 09:29 | 51.51062 | 10.90575 | 34033 ft | 413 kts | 276° |
| 2026-05-04 09:29 | 51.51970 | 10.81483 | 34034 ft | 413 kts | 276° |
| 2026-05-04 09:30 | 51.52870 | 10.72383 | 34034 ft | 412 kts | 276° |
| 2026-05-04 09:30 | 51.53808 | 10.63298 | 34052 ft | 414 kts | 279° |
| 2026-05-04 09:31 | 51.55328 | 10.54367 | 34045 ft | 414 kts | 282° |
| 2026-05-04 09:31 | 51.56848 | 10.45513 | 34042 ft | 413 kts | 281° |
| 2026-05-04 09:32 | 51.58360 | 10.36602 | 34038 ft | 413 kts | 281° |
| 2026-05-04 09:34 | 51.64343 | 10.01016 | 34043 ft | 412 kts | 280° |
| 2026-05-04 09:34 | 51.65816 | 9.92114 | 34038 ft | 411 kts | 280° |
| 2026-05-04 09:35 | 51.67292 | 9.83208 | 34036 ft | 411 kts | 280° |
| 2026-05-04 09:35 | 51.68756 | 9.74298 | 34037 ft | 411 kts | 280° |
| 2026-05-04 09:37 | 51.74533 | 9.38687 | 34038 ft | 411 kts | 279° |
| 2026-05-04 09:38 | 51.75954 | 9.29759 | 34033 ft | 411 kts | 279° |
| 2026-05-04 09:38 | 51.77361 | 9.20893 | 34033 ft | 411 kts | 279° |
| 2026-05-04 09:39 | 51.78777 | 9.11954 | 34033 ft | 411 kts | 279° |
| 2026-05-04 09:39 | 51.80184 | 9.03011 | 34036 ft | 411 kts | 279° |
| 2026-05-04 09:40 | 51.81586 | 8.94066 | 34034 ft | 410 kts | 279° |
| 2026-05-04 09:40 | 51.82980 | 8.85121 | 34036 ft | 410 kts | 279° |
| 2026-05-04 09:42 | 51.88472 | 8.49337 | 34034 ft | 411 kts | 279° |
| 2026-05-04 09:43 | 51.89823 | 8.40417 | 34025 ft | 411 kts | 279° |
| 2026-05-04 09:43 | 51.91180 | 8.31426 | 34035 ft | 411 kts | 279° |
| 2026-05-04 09:44 | 51.92528 | 8.22424 | 34033 ft | 412 kts | 279° |
| 2026-05-04 09:46 | 51.97852 | 7.86388 | 34023 ft | 412 kts | 278° |
| 2026-05-04 09:46 | 51.99158 | 7.77358 | 34023 ft | 411 kts | 279° |
| 2026-05-04 09:47 | 52.00460 | 7.68387 | 34026 ft | 411 kts | 279° |
| 2026-05-04 09:49 | 52.05596 | 7.32262 | 34036 ft | 411 kts | 278° |
| 2026-05-04 09:51 | 52.09982 | 7.00801 | 34017 ft | 407 kts | 278° |
| 2026-05-04 09:51 | 52.11207 | 6.91872 | 34016 ft | 407 kts | 278° |
| 2026-05-04 09:52 | 52.12438 | 6.82875 | 34033 ft | 408 kts | 278° |
| 2026-05-04 09:52 | 52.13861 | 6.73931 | 34026 ft | 412 kts | 285° |
| 2026-05-04 09:53 | 52.15824 | 6.65172 | 34025 ft | 412 kts | 285° |
| 2026-05-04 09:53 | 52.17769 | 6.56393 | 34024 ft | 412 kts | 284° |
| 2026-05-04 09:54 | 52.19692 | 6.47674 | 34016 ft | 412 kts | 284° |
| 2026-05-04 09:54 | 52.21619 | 6.38888 | 34038 ft | 411 kts | 284° |
| 2026-05-04 09:55 | 52.23540 | 6.30098 | 34030 ft | 412 kts | 284° |
| 2026-05-04 09:55 | 52.25461 | 6.21300 | 34021 ft | 411 kts | 284° |
| 2026-05-04 09:56 | 52.27359 | 6.12555 | 34020 ft | 412 kts | 284° |
| 2026-05-04 09:56 | 52.29260 | 6.03741 | 34017 ft | 411 kts | 284° |
| 2026-05-04 09:57 | 52.31153 | 5.94923 | 34017 ft | 411 kts | 284° |
| 2026-05-04 09:57 | 52.33042 | 5.86103 | 34025 ft | 411 kts | 284° |
| 2026-05-04 09:58 | 52.34930 | 5.77261 | 34019 ft | 412 kts | 284° |
| 2026-05-04 09:58 | 52.36794 | 5.68469 | 34016 ft | 412 kts | 284° |
| 2026-05-04 10:00 | 52.44263 | 5.32917 | 34027 ft | 414 kts | 285° |
| 2026-05-04 10:04 | 52.57421 | 4.70294 | 34022 ft | 418 kts | 288° |
| 2026-05-04 10:04 | 52.59518 | 4.61373 | 34027 ft | 418 kts | 287° |
| 2026-05-04 10:05 | 52.61569 | 4.52422 | 34029 ft | 418 kts | 287° |
| 2026-05-04 10:05 | 52.63577 | 4.43513 | 34033 ft | 418 kts | 287° |
| 2026-05-04 10:06 | 52.65592 | 4.34527 | 34039 ft | 418 kts | 287° |
| 2026-05-04 10:06 | 52.67605 | 4.25535 | 34040 ft | 418 kts | 287° |
| 2026-05-04 10:08 | 52.74598 | 3.94031 | 34054 ft | 420 kts | 287° |
| 2026-05-04 10:08 | 52.76592 | 3.84960 | 34042 ft | 421 kts | 287° |
| 2026-05-04 10:09 | 52.78581 | 3.75868 | 34037 ft | 421 kts | 287° |
| 2026-05-04 10:09 | 52.80545 | 3.66820 | 34037 ft | 421 kts | 287° |
| 2026-05-04 10:10 | 52.82521 | 3.57699 | 34040 ft | 421 kts | 287° |
| 2026-05-04 10:10 | 52.84497 | 3.48571 | 34047 ft | 422 kts | 287° |
| 2026-05-04 10:11 | 52.86465 | 3.39401 | 34029 ft | 424 kts | 286° |
| 2026-05-04 10:11 | 52.88429 | 3.30196 | 34031 ft | 424 kts | 286° |
| 2026-05-04 10:12 | 52.90382 | 3.21037 | 34032 ft | 425 kts | 286° |
| 2026-05-04 10:12 | 52.92124 | 3.11710 | 34023 ft | 423 kts | 279° |
| 2026-05-04 10:13 | 52.93378 | 3.02184 | 34046 ft | 423 kts | 280° |
| 2026-05-04 10:13 | 52.94636 | 2.92653 | 34043 ft | 423 kts | 280° |
| 2026-05-04 10:14 | 52.95879 | 2.83169 | 34057 ft | 424 kts | 280° |
| 2026-05-04 10:16 | 53.00806 | 2.44823 | 34033 ft | 426 kts | 280° |
| 2026-05-04 10:16 | 53.02015 | 2.35233 | 34033 ft | 428 kts | 280° |
| 2026-05-04 10:17 | 53.03240 | 2.25552 | 34039 ft | 429 kts | 280° |
| 2026-05-04 10:19 | 53.08033 | 1.86660 | 34049 ft | 432 kts | 280° |
| 2026-05-04 10:19 | 53.09213 | 1.76858 | 34054 ft | 433 kts | 280° |
| 2026-05-04 10:20 | 53.10391 | 1.67030 | 34054 ft | 433 kts | 280° |
| 2026-05-04 10:20 | 53.11569 | 1.57196 | 34064 ft | 434 kts | 280° |
| 2026-05-04 10:21 | 53.12732 | 1.47415 | 34069 ft | 434 kts | 280° |
| 2026-05-04 10:21 | 53.13882 | 1.37546 | 34067 ft | 435 kts | 280° |
| 2026-05-04 10:22 | 53.15604 | 1.22718 | 34076 ft | 435 kts | 280° |
| 2026-05-04 10:23 | 53.16138 | 1.18142 | 34083 ft | 434 kts | 280° |
| 2026-05-04 10:37 | 53.17176 | 1.09120 | 34093 ft | 435 kts | 280° |
| 2026-05-04 10:39 | 53.21095 | 0.74416 | 34070 ft | 438 kts | 280° |
| 2026-05-04 10:40 | 53.22197 | 0.64438 | 33980 ft | 436 kts | 280° |
| 2026-05-04 10:40 | 53.22863 | 0.59556 | 33706 ft | 428 kts | 288° |
| 2026-05-04 10:40 | 53.23816 | 0.54879 | 33429 ft | 425 kts | 288° |
| 2026-05-04 10:40 | 53.24752 | 0.50280 | 33160 ft | 423 kts | 289° |
| 2026-05-04 10:41 | 53.25697 | 0.45622 | 32891 ft | 426 kts | 289° |
| 2026-05-04 10:41 | 53.26650 | 0.40922 | 32624 ft | 428 kts | 290° |
| 2026-05-04 10:41 | 53.27604 | 0.36216 | 32364 ft | 428 kts | 290° |
| 2026-05-04 10:41 | 53.28557 | 0.31516 | 32101 ft | 427 kts | 290° |
| 2026-05-04 10:42 | 53.29505 | 0.26816 | 31842 ft | 425 kts | 290° |
| 2026-05-04 10:42 | 53.30445 | 0.22137 | 31583 ft | 424 kts | 290° |
| 2026-05-04 10:42 | 53.31379 | 0.17476 | 31326 ft | 422 kts | 290° |
| 2026-05-04 10:42 | 53.32308 | 0.12822 | 31074 ft | 421 kts | 290° |
| 2026-05-04 10:43 | 53.33217 | 0.08249 | 30829 ft | 419 kts | 290° |
| 2026-05-04 10:44 | 53.39591 | -0.23963 | 28927 ft | 411 kts | 290° |
| 2026-05-04 10:45 | 53.40480 | -0.28503 | 28644 ft | 409 kts | 290° |
| 2026-05-04 10:45 | 53.41350 | -0.32959 | 28367 ft | 407 kts | 290° |
| 2026-05-04 10:45 | 53.42226 | -0.37457 | 28098 ft | 405 kts | 290° |
| 2026-05-04 10:45 | 53.43095 | -0.41936 | 27830 ft | 403 kts | 290° |
| 2026-05-04 10:46 | 53.43957 | -0.46391 | 27574 ft | 400 kts | 290° |
| 2026-05-04 10:46 | 53.44812 | -0.50814 | 27310 ft | 398 kts | 290° |
| 2026-05-04 10:46 | 53.45665 | -0.55235 | 27052 ft | 396 kts | 289° |
| 2026-05-04 10:46 | 53.46506 | -0.59615 | 26789 ft | 394 kts | 289° |
| 2026-05-04 10:47 | 53.47344 | -0.63981 | 26526 ft | 392 kts | 289° |
| 2026-05-04 10:47 | 53.48176 | -0.68320 | 26275 ft | 390 kts | 289° |
| 2026-05-04 10:47 | 53.48993 | -0.72588 | 26020 ft | 388 kts | 289° |
| 2026-05-04 10:47 | 53.49814 | -0.76882 | 25774 ft | 386 kts | 289° |
| 2026-05-04 10:49 | 53.55421 | -1.06460 | 24071 ft | 374 kts | 288° |
| 2026-05-04 10:49 | 53.56190 | -1.10580 | 23840 ft | 373 kts | 288° |
| 2026-05-04 10:50 | 53.56966 | -1.14738 | 23608 ft | 372 kts | 288° |
| 2026-05-04 10:51 | 53.62125 | -1.42559 | 21698 ft | 346 kts | 287° |
| 2026-05-04 10:52 | 53.62834 | -1.46416 | 21437 ft | 344 kts | 287° |
| 2026-05-04 10:52 | 53.63535 | -1.50215 | 21172 ft | 343 kts | 287° |
| 2026-05-04 10:52 | 53.64240 | -1.54044 | 20899 ft | 342 kts | 287° |
| 2026-05-04 10:54 | 53.69005 | -1.80327 | 17128 ft | 319 kts | 287° |
| 2026-05-04 10:54 | 53.69646 | -1.83878 | 16324 ft | 314 kts | 286° |
| 2026-05-04 10:56 | 53.73847 | -2.07364 | 10939 ft | 286 kts | 287° |
| 2026-05-04 10:56 | 53.74415 | -2.10566 | 10159 ft | 284 kts | 288° |
| 2026-05-04 10:56 | 53.75004 | -2.13698 | 9800 ft | 282 kts | 289° |
| 2026-05-04 10:57 | 53.75458 | -2.16933 | 9430 ft | 284 kts | 276° |
| 2026-05-04 10:57 | 53.75488 | -2.20262 | 9055 ft | 283 kts | 270° |
| 2026-05-04 10:57 | 53.75455 | -2.23546 | 8692 ft | 284 kts | 270° |
| 2026-05-04 10:57 | 53.75415 | -2.26883 | 8312 ft | 285 kts | 270° |
| 2026-05-04 10:58 | 53.75325 | -2.30204 | 7932 ft | 281 kts | 261° |
| 2026-05-04 10:58 | 53.74584 | -2.33225 | 7567 ft | 280 kts | 232° |
| 2026-05-04 10:58 | 53.73107 | -2.35305 | 7189 ft | 274 kts | 204° |
| 2026-05-04 10:58 | 53.71335 | -2.35959 | 7063 ft | 257 kts | 177° |
| 2026-05-04 10:59 | 53.69561 | -2.35590 | 7073 ft | 258 kts | 171° |
| 2026-05-04 10:59 | 53.67771 | -2.35172 | 7080 ft | 267 kts | 177° |
| 2026-05-04 10:59 | 53.65991 | -2.35703 | 7061 ft | 258 kts | 204° |
| 2026-05-04 10:59 | 53.64419 | -2.37026 | 6758 ft | 255 kts | 209° |
| 2026-05-04 11:00 | 53.62880 | -2.38483 | 6434 ft | 253 kts | 210° |
| 2026-05-04 11:01 | 53.52127 | -2.47883 | 4184 ft | 245 kts | 205° |
| 2026-05-04 11:02 | 53.50589 | -2.49107 | 3848 ft | 244 kts | 205° |
| 2026-05-04 11:02 | 53.49057 | -2.50323 | 3489 ft | 243 kts | 205° |
| 2026-05-04 11:05 | 53.27108 | -2.58883 | 3004 ft | 240 kts | 150° |
| 2026-05-04 11:06 | 53.25661 | -2.57498 | 3002 ft | 239 kts | 143° |
| 2026-05-04 11:06 | 53.24533 | -2.55501 | 3007 ft | 237 kts | 118° |
| 2026-05-04 11:06 | 53.24013 | -2.52916 | 3006 ft | 235 kts | 94° |
| 2026-05-04 11:06 | 53.24167 | -2.50358 | 3004 ft | 219 kts | 71° |
| 2026-05-04 11:08 | 53.29965 | -2.37733 | 1255 ft | 151 kts | 51° |
| 2026-05-04 11:10 | 53.34115 | -2.29169 | 231 ft | 69 kts | 51° |
| 2026-05-04 11:12 | 53.34747 | -2.28327 | 230 ft | 9 kts | 49° |
| 2026-05-04 11:12 | 53.34788 | -2.28245 | 231 ft | 9 kts | 51° |
| 2026-05-04 11:12 | 53.34829 | -2.28159 | 231 ft | 11 kts | 52° |
| 2026-05-04 11:12 | 53.34884 | -2.28045 | 229 ft | 14 kts | 51° |
| 2026-05-04 11:13 | 53.34945 | -2.27917 | 230 ft | 14 kts | 51° |
| 2026-05-04 11:13 | 53.35013 | -2.27780 | 229 ft | 16 kts | 51° |
| 2026-05-04 11:13 | 53.35079 | -2.27641 | 233 ft | 14 kts | 51° |
| 2026-05-04 11:13 | 53.35143 | -2.27509 | 236 ft | 15 kts | 51° |
| 2026-05-04 11:14 | 53.35204 | -2.27382 | 238 ft | 14 kts | 51° |
| 2026-05-04 11:14 | 53.35263 | -2.27260 | 239 ft | 13 kts | 51° |
| 2026-05-04 11:14 | 53.35313 | -2.27199 | 242 ft | 7 kts | 19° |
| 2026-05-04 11:16 | 53.35428 | -2.27264 | 247 ft | 15 kts | 321° |
| 2026-05-04 11:16 | 53.35519 | -2.27387 | 248 ft | 11 kts | 321° |
| 2026-05-04 11:16 | 53.35572 | -2.27459 | 245 ft | 1 kts | 321° |
| 2026-05-04 11:17 | 53.35577 | -2.27466 | 245 ft | 1 kts | 321° |
| 2026-05-04 11:17 | 53.35588 | -2.27480 | 245 ft | 0 kts | 321° |
| 2026-05-04 11:19 | 53.35615 | -2.27516 | 245 ft | 3 kts | 321° |
| 2026-05-04 11:19 | 53.35633 | -2.27540 | 246 ft | 3 kts | 321° |
| 2026-05-04 11:19 | 53.35653 | -2.27568 | 246 ft | 4 kts | 321° |
| 2026-05-04 11:19 | 53.35676 | -2.27598 | 247 ft | 4 kts | 326° |
| 2026-05-04 11:20 | 53.35703 | -2.27619 | 247 ft | 4 kts | 337° |
| 2026-05-04 11:20 | 53.35723 | -2.27633 | 248 ft | 3 kts | 338° |
| 2026-05-04 11:20 | 53.35754 | -2.27654 | 250 ft | 6 kts | 338° |
| 2026-05-04 11:20 | 53.35800 | -2.27704 | 252 ft | 10 kts | 322° |
| 2026-05-04 11:22 | 53.36362 | -2.27984 | 255 ft | 19 kts | 43° |
| 2026-05-04 11:22 | 53.36420 | -2.27935 | 255 ft | 6 kts | 5° |
| 2026-05-04 11:23 | 53.36465 | -2.27888 | 255 ft | 8 kts | 41° |
| 2026-05-04 11:23 | 53.36485 | -2.27856 | 255 ft | 3 kts | 44° |
| 2026-05-04 11:24 | 53.36487 | -2.27853 | 255 ft | 0 kts | 44° |